Time;durP1;ratioP1;P1;durP2;ratioP2;P2;SDS_P1;SDS_P2;PMS_P1;PMS_P2;Temp;Humidity;BMP_temperature;BMP_pressure;BME280_temperature;BME280_humidity;BME280_pressure;Samples;Min_cycle;Max_cycle;Signal;HPM_P1;HPM_P2
2022/11/29 00:03:36;;;;;;;21.83;16.10;;;;;;;6.98;74.68;100263.31;10080904;29;20564;-80
2022/11/29 00:09:05;;;;;;;30.43;17.40;;;;;;;6.77;75.75;100267.72;10078433;29;20278;-79
2022/11/29 00:14:27;;;;;;;27.13;17.90;;;;;;;6.93;74.57;100265.44;10083453;29;20213;-79
2022/11/29 00:19:49;;;;;;;28.53;17.97;;;;;;;6.62;75.87;100270.81;10087129;29;20602;-79
2022/11/29 00:25:11;;;;;;;32.67;18.17;;;;;;;6.48;76.88;100275.56;10080923;29;20261;-79
2022/11/29 00:30:33;;;;;;;34.67;19.70;;;;;;;6.82;75.48;100270.38;10058381;29;20214;-79
2022/11/29 00:36:00;;;;;;;33.43;19.37;;;;;;;6.59;76.75;100272.25;10084055;29;20249;-81
2022/11/29 00:41:22;;;;;;;31.80;18.80;;;;;;;6.89;75.24;100275.59;10099953;29;20209;-79
2022/11/29 00:46:44;;;;;;;31.60;20.23;;;;;;;6.85;75.27;100266.97;10086645;29;20225;-78
2022/11/29 00:52:06;;;;;;;33.97;19.47;;;;;;;6.67;75.78;100272.69;10086972;29;20265;-79
2022/11/29 00:57:29;;;;;;;29.93;18.13;;;;;;;6.92;75.17;100278.59;10106516;29;20229;-79
2022/11/29 01:02:51;;;;;;;25.67;17.67;;;;;;;6.92;74.44;100275.81;10086371;29;20253;-79
2022/11/29 01:08:14;;;;;;;30.23;19.30;;;;;;;6.81;75.14;100279.09;10089420;29;20202;-78
2022/11/29 01:13:36;;;;;;;38.37;20.50;;;;;;;6.99;75.17;100276.19;10083859;29;20599;-78
2022/11/29 01:18:59;;;;;;;31.70;18.97;;;;;;;7.07;74.32;100276.59;10082239;29;20213;-79
2022/11/29 01:24:21;;;;;;;27.80;17.43;;;;;;;6.51;75.88;100281.41;10061128;29;20592;-81
2022/11/29 01:29:43;;;;;;;30.30;17.70;;;;;;;6.97;74.43;100288.84;10097911;29;20199;-79
2022/11/29 01:35:08;;;;;;;39.07;18.70;;;;;;;6.81;75.87;100291.13;10043181;29;20190;-80
2022/11/29 01:40:30;;;;;;;26.00;16.13;;;;;;;6.71;75.26;100296.13;10088356;29;20197;-80
2022/11/29 01:45:52;;;;;;;17.87;12.63;;;;;;;6.31;77.14;100299.38;10080499;29;20225;-79
2022/11/29 01:51:14;;;;;;;16.00;12.27;;;;;;;6.38;76.40;100300.94;10079988;29;20222;-79
2022/11/29 01:56:37;;;;;;;16.40;10.50;;;;;;;6.12;77.66;100307.00;10084514;29;20214;-80
2022/11/29 02:02:05;;;;;;;14.87;10.43;;;;;;;6.56;75.57;100314.06;10086373;29;20253;-80
2022/11/29 02:07:31;;;;;;;17.20;11.53;;;;;;;6.88;74.33;100325.19;10091628;29;20504;-81
2022/11/29 02:13:21;;;;;;;15.53;11.90;;;;;;;6.41;76.64;100320.75;10075022;29;20202;-88
2022/11/29 02:18:53;;;;;;;17.60;10.83;;;;;;;6.51;75.04;100319.75;10094415;29;20625;-80
2022/11/29 02:24:53;;;;;;;16.37;10.30;;;;;;;6.36;75.17;100334.00;10074916;29;20202;-80
2022/11/29 02:30:34;;;;;;;15.87;10.23;;;;;;;6.18;76.68;100330.09;10089910;29;20232;-80
2022/11/29 02:36:18;;;;;;;19.33;11.73;;;;;;;6.41;76.79;100331.16;10093798;29;20205;-80
2022/11/29 02:42:05;;;;;;;14.10;9.97;;;;;;;6.81;73.20;100330.34;10072539;29;20487;-79
2022/11/29 02:47:46;;;;;;;16.13;10.67;;;;;;;6.92;73.91;100331.00;10087646;29;20201;-80
2022/11/29 02:53:16;;;;;;;14.67;10.40;;;;;;;6.78;73.10;100336.59;10091182;29;20210;-80
2022/11/29 02:58:54;;;;;;;16.03;10.27;;;;;;;6.84;73.14;100342.91;10062642;29;20226;-80
2022/11/29 03:04:26;;;;;;;15.83;10.57;;;;;;;6.85;73.46;100347.38;10083871;29;20202;-80
2022/11/29 03:10:03;;;;;;;14.90;9.60;;;;;;;6.69;72.53;100354.41;10065422;29;20198;-79
2022/11/29 03:15:29;;;;;;;16.53;10.70;;;;;;;6.42;74.94;100356.03;10071388;29;20198;-80
2022/11/29 03:21:25;;;;;;;18.50;11.40;;;;;;;6.64;73.66;100360.97;10072145;29;20194;-80
2022/11/29 03:26:51;;;;;;;20.50;12.17;;;;;;;6.71;72.73;100364.16;10097017;29;20202;-79
2022/11/29 03:32:27;;;;;;;16.97;10.10;;;;;;;6.28;74.88;100372.75;10099243;29;20282;-79
2022/11/29 03:38:13;;;;;;;21.27;12.03;;;;;;;6.27;76.08;100370.28;10099066;29;20312;-79
2022/11/29 03:43:59;;;;;;;27.47;13.73;;;;;;;6.42;74.40;100380.38;10078608;29;20260;-79
2022/11/29 03:49:39;;;;;;;27.63;13.03;;;;;;;6.75;73.11;100390.44;10064894;29;20560;-78
2022/11/29 03:55:07;;;;;;;32.47;14.23;;;;;;;6.17;75.59;100385.25;10098498;29;20224;-79
2022/11/29 04:00:36;;;;;;;29.50;14.57;;;;;;;6.66;72.93;100392.28;10079940;29;20254;-79
2022/11/29 04:06:22;;;;;;;31.03;13.93;;;;;;;6.10;76.36;100393.22;10079699;29;20206;-81
2022/11/29 04:11:58;;;;;;;32.50;14.87;;;;;;;5.95;76.32;100407.44;10079425;29;20194;-79
2022/11/29 04:18:02;;;;;;;26.97;13.87;;;;;;;5.98;75.85;100412.44;10074738;29;20295;-79
2022/11/29 04:23:33;;;;;;;24.30;12.30;;;;;;;5.90;75.86;100419.53;10085339;29;20563;-80
2022/11/29 04:29:31;;;;;;;34.00;13.87;;;;;;;6.17;75.45;100426.41;10096832;29;20193;-79
2022/11/29 04:35:32;;;;;;;32.37;14.57;;;;;;;6.36;73.29;100423.59;10107699;29;20201;-80
2022/11/29 04:41:22;;;;;;;27.37;13.43;;;;;;;6.70;72.88;100434.50;10096577;29;20198;-84
2022/11/29 04:47:06;;;;;;;24.30;12.40;;;;;;;6.63;71.70;100423.72;10073544;29;20241;-80
2022/11/29 04:52:50;;;;;;;25.80;12.83;;;;;;;6.48;73.00;100437.97;10102181;29;20201;-80
2022/11/29 04:58:20;;;;;;;28.10;13.57;;;;;;;6.65;72.41;100441.03;10082901;29;20262;-79
2022/11/29 05:04:05;;;;;;;33.03;13.33;;;;;;;6.83;72.91;100434.53;10096517;29;20204;-80
2022/11/29 05:09:37;;;;;;;30.43;14.10;;;;;;;6.29;75.08;100451.94;10081674;29;20614;-80
2022/11/29 05:15:24;;;;;;;30.77;15.40;;;;;;;6.51;74.29;100445.75;10076655;29;20214;-80
2022/11/29 05:21:08;;;;;;;31.03;13.73;;;;;;;6.27;73.83;100460.69;10084290;29;20253;-84
2022/11/29 05:26:43;;;;;;;31.43;13.97;;;;;;;6.42;73.94;100462.41;10059390;29;20210;-81
2022/11/29 05:32:27;;;;;;;26.40;12.10;;;;;;;5.94;73.65;100472.91;10072903;29;20210;-81
2022/11/29 05:37:52;;;;;;;28.00;14.40;;;;;;;6.35;73.46;100477.91;10091215;29;20273;-81
2022/11/29 05:43:44;;;;;;;27.77;13.57;;;;;;;6.57;73.19;100475.34;10085293;29;20738;-80
2022/11/29 05:49:17;;;;;;;32.40;15.60;;;;;;;6.06;75.28;100494.84;10092717;29;20340;-79
2022/11/29 05:54:45;;;;;;;26.87;14.70;;;;;;;6.38;74.58;100494.94;10094556;29;20682;-80
2022/11/29 06:00:13;;;;;;;32.90;15.93;;;;;;;6.32;73.97;100494.16;10080910;29;20245;-80
2022/11/29 06:05:53;;;;;;;32.10;16.37;;;;;;;6.40;72.97;100497.47;10072335;29;20511;-81
2022/11/29 06:11:32;;;;;;;33.53;15.13;;;;;;;6.52;72.23;100515.47;10078460;29;20205;-81
2022/11/29 06:17:17;;;;;;;39.90;16.40;;;;;;;6.40;73.24;100528.25;10072484;29;20242;-80
2022/11/29 06:23:07;;;;;;;24.87;13.57;;;;;;;6.35;71.90;100528.28;10064215;29;20209;-80
2022/11/29 06:28:56;;;;;;;30.07;15.53;;;;;;;6.46;72.24;100541.88;10096505;29;20226;-80
2022/11/29 06:34:51;;;;;;;32.30;14.53;;;;;;;6.42;71.17;100538.00;10108243;29;20261;-80
2022/11/29 06:40:15;;;;;;;37.97;15.47;;;;;;;6.30;72.87;100554.38;10100325;29;20249;-81
2022/11/29 06:45:38;;;;;;;29.17;13.37;;;;;;;6.26;71.08;100553.34;10088158;29;20241;-80
2022/11/29 06:51:14;;;;;;;35.47;13.73;;;;;;;5.93;70.80;100560.75;10091186;29;20222;-80
2022/11/29 06:56:41;;;;;;;29.03;12.83;;;;;;;6.01;71.41;100568.50;10083521;29;20635;-80
2022/11/29 07:02:28;;;;;;;32.87;13.17;;;;;;;6.29;70.30;100573.16;10109434;29;20202;-80
2022/11/29 07:07:54;;;;;;;29.57;13.60;;;;;;;5.96;70.42;100576.97;10065624;29;20209;-80
2022/11/29 07:13:17;;;;;;;37.47;16.50;;;;;;;6.22;68.50;100581.09;10084895;29;20616;-80
2022/11/29 07:18:46;;;;;;;33.60;14.50;;;;;;;6.38;68.82;100594.88;10110366;29;20230;-80
2022/11/29 07:24:45;;;;;;;36.03;12.80;;;;;;;5.62;71.00;100593.03;10094808;29;20499;-81
2022/11/29 07:30:27;;;;;;;33.40;12.37;;;;;;;6.23;69.54;100593.97;10103771;29;20588;-84
2022/11/29 07:36:01;;;;;;;32.50;13.53;;;;;;;5.84;71.56;100601.72;10087720;29;20610;-80
2022/11/29 07:41:34;;;;;;;34.57;14.63;;;;;;;6.06;70.44;100613.19;10088444;29;20198;-81
2022/11/29 07:46:57;;;;;;;33.53;14.27;;;;;;;6.17;70.58;100614.72;10090534;29;20281;-81
2022/11/29 07:52:19;;;;;;;33.47;13.67;;;;;;;6.24;70.35;100629.22;10077676;29;20194;-81
2022/11/29 07:57:41;;;;;;;27.20;14.90;;;;;;;6.23;70.45;100621.94;10060617;29;20480;-81
2022/11/29 08:03:03;;;;;;;32.90;13.97;;;;;;;5.93;69.74;100623.16;10082425;29;20198;-80
2022/11/29 08:08:25;;;;;;;26.80;11.63;;;;;;;5.93;68.83;100625.09;10080486;29;20219;-81
2022/11/29 08:13:47;;;;;;;27.20;11.87;;;;;;;5.53;69.77;100627.22;10082979;29;20197;-81
2022/11/29 08:19:09;;;;;;;33.83;12.67;;;;;;;6.20;68.04;100630.94;10080688;29;20630;-81
2022/11/29 08:24:32;;;;;;;25.83;11.60;;;;;;;6.40;66.63;100638.28;10071161;29;20670;-81
2022/11/29 08:29:54;;;;;;;30.17;12.63;;;;;;;6.09;70.40;100636.97;10078054;29;20198;-81
2022/11/29 08:35:17;;;;;;;30.00;11.93;;;;;;;6.18;71.47;100643.56;10080377;29;20226;-81
2022/11/29 08:40:39;;;;;;;36.27;13.20;;;;;;;6.57;67.95;100648.97;10060417;29;20250;-81
2022/11/29 08:46:02;;;;;;;39.03;12.77;;;;;;;6.71;67.68;100655.47;10097847;29;20234;-81
2022/11/29 08:51:24;;;;;;;30.27;12.63;;;;;;;6.80;67.59;100659.25;10085002;29;20234;-81
2022/11/29 08:56:46;;;;;;;34.13;12.70;;;;;;;6.70;68.08;100662.22;10099335;29;20206;-82
2022/11/29 09:02:08;;;;;;;31.50;13.53;;;;;;;6.91;68.26;100666.41;10088974;29;20209;-81
2022/11/29 09:07:30;;;;;;;31.80;13.40;;;;;;;6.93;67.52;100675.31;10079383;29;20194;-81
2022/11/29 09:12:53;;;;;;;30.23;11.83;;;;;;;6.49;69.48;100674.84;10057634;29;20254;-82
2022/11/29 09:18:15;;;;;;;32.00;13.37;;;;;;;5.95;71.16;100682.44;10093972;29;20202;-81
2022/11/29 09:23:39;;;;;;;35.27;13.50;;;;;;;6.77;68.16;100687.91;10097726;29;20198;-87
2022/11/29 09:29:03;;;;;;;30.27;13.83;;;;;;;6.27;66.78;100698.59;10077027;29;20242;-82
2022/11/29 09:34:25;;;;;;;23.57;9.77;;;;;;;6.67;64.69;100709.63;10048834;29;20195;-81
2022/11/29 09:39:47;;;;;;;30.53;11.60;;;;;;;6.73;66.02;100709.25;10094371;29;20297;-81
2022/11/29 09:45:17;;;;;;;23.47;10.23;;;;;;;6.32;66.30;100712.53;10062601;29;20238;-81
2022/11/29 09:50:56;;;;;;;23.97;9.93;;;;;;;6.40;66.20;100716.69;10071178;29;20218;-81
2022/11/29 09:56:28;;;;;;;31.30;12.13;;;;;;;6.69;66.37;100724.13;10070101;29;20242;-85
2022/11/29 10:02:07;;;;;;;29.70;11.93;;;;;;;6.34;66.49;100722.59;10083817;29;20202;-82
2022/11/29 10:07:45;;;;;;;30.70;13.60;;;;;;;6.27;68.03;100728.56;10050808;29;20210;-81
2022/11/29 10:13:17;;;;;;;33.77;13.40;;;;;;;6.95;66.30;100723.50;10099313;29;20254;-81
2022/11/29 10:18:43;;;;;;;31.07;12.60;;;;;;;6.73;66.47;100720.44;10085962;29;20214;-80
2022/11/29 10:24:12;;;;;;;31.37;12.60;;;;;;;6.88;65.95;100725.00;10047835;29;20213;-80
2022/11/29 10:29:34;;;;;;;32.87;16.03;;;;;;;6.81;66.84;100730.97;10084642;29;20238;-80
2022/11/29 10:34:59;;;;;;;28.30;11.93;;;;;;;6.11;69.57;100730.69;10083215;29;20230;-80
2022/11/29 10:40:33;;;;;;;24.57;12.93;;;;;;;5.96;70.50;100736.44;10070326;29;20272;-80
2022/11/29 10:45:55;;;;;;;33.07;13.10;;;;;;;5.58;71.41;100732.59;10090624;29;20526;-80
2022/11/29 10:51:17;;;;;;;32.37;15.67;;;;;;;6.23;69.10;100728.31;10080111;29;20584;-80
2022/11/29 10:56:40;;;;;;;33.83;14.57;;;;;;;6.64;67.11;100727.84;10069197;29;20265;-80
2022/11/29 11:02:03;;;;;;;43.00;16.37;;;;;;;6.86;66.96;100733.72;10066967;29;20222;-80
2022/11/29 11:07:30;;;;;;;35.77;14.83;;;;;;;7.37;66.10;100732.97;10083081;29;20246;-81
2022/11/29 11:13:04;;;;;;;30.97;14.03;;;;;;;6.86;65.46;100730.06;10073244;29;20250;-80
2022/11/29 11:18:28;;;;;;;35.50;15.70;;;;;;;7.01;67.80;100736.31;10082788;29;20217;-80
2022/11/29 11:23:53;;;;;;;32.20;14.23;;;;;;;6.78;67.17;100731.59;10071676;29;20599;-80
2022/11/29 11:29:22;;;;;;;27.63;14.77;;;;;;;7.02;65.16;100726.78;10076278;29;20257;-80
2022/11/29 11:34:55;;;;;;;28.23;14.03;;;;;;;6.61;67.54;100739.66;10091113;29;20205;-81
2022/11/29 11:40:27;;;;;;;32.03;13.93;;;;;;;6.52;67.12;100735.84;10090648;29;20222;-80
2022/11/29 11:45:51;;;;;;;34.30;15.73;;;;;;;6.98;65.36;100739.72;10075195;29;20229;-80
2022/11/29 11:51:22;;;;;;;34.93;15.63;;;;;;;6.82;66.31;100734.59;10077654;29;20251;-85
2022/11/29 11:56:44;;;;;;;33.23;15.97;;;;;;;7.38;65.85;100737.44;10102486;29;20202;-81
2022/11/29 12:02:27;;;;;;;44.13;18.83;;;;;;;6.92;67.60;100743.72;10072357;29;20233;-81
2022/11/29 12:07:54;;;;;;;30.53;16.20;;;;;;;7.20;66.55;100741.06;10089701;29;20253;-81
2022/11/29 12:13:19;;;;;;;37.97;17.77;;;;;;;6.28;68.86;100742.22;10084147;29;20266;-80
2022/11/29 12:18:46;;;;;;;39.17;19.60;;;;;;;7.32;66.59;100747.88;10089208;29;20503;-80
2022/11/29 12:24:26;;;;;;;50.47;21.03;;;;;;;6.92;69.57;100756.91;10065167;29;20198;-80
2022/11/29 12:29:48;;;;;;;49.43;23.13;;;;;;;6.76;70.24;100759.06;10073632;29;20251;-81
2022/11/29 12:35:36;;;;;;;53.17;21.93;;;;;;;7.10;69.41;100763.66;10060623;29;20221;-80
2022/11/29 12:41:04;;;;;;;52.80;27.57;;;;;;;7.11;69.58;100768.13;10094419;29;20301;-80
2022/11/29 12:46:27;;;;;;;46.70;22.23;;;;;;;7.25;67.73;100778.28;10102035;29;20230;-81
2022/11/29 12:52:27;;;;;;;39.03;20.37;;;;;;;6.84;69.34;100789.22;10072150;29;20234;-80
2022/11/29 12:58:31;;;;;;;59.17;26.30;;;;;;;7.02;69.76;100785.63;10088335;29;20255;-81
2022/11/29 13:04:20;;;;;;;58.03;27.30;;;;;;;7.06;69.81;100790.63;10101334;29;20491;-80
2022/11/29 13:09:51;;;;;;;58.43;25.33;;;;;;;7.06;70.09;100790.63;10078496;29;20241;-80
2022/11/29 13:15:16;;;;;;;59.13;27.33;;;;;;;7.12;69.00;100795.03;10088099;29;20595;-81
2022/11/29 13:20:47;;;;;;;50.73;23.77;;;;;;;6.74;69.87;100797.75;10056692;29;20615;-80
2022/11/29 13:26:11;;;;;;;45.53;21.70;;;;;;;6.25;71.32;100809.19;10087640;29;20627;-81
2022/11/29 13:31:33;;;;;;;44.70;21.17;;;;;;;5.91;72.15;100820.41;10077815;29;20273;-80
2022/11/29 13:36:58;;;;;;;50.17;22.07;;;;;;;6.41;71.34;100804.31;10058580;29;20273;-80
2022/11/29 13:42:22;;;;;;;44.53;21.43;;;;;;;7.08;67.69;100799.56;10090092;29;20273;-80
2022/11/29 13:47:53;;;;;;;37.13;19.87;;;;;;;6.32;70.41;100801.28;10086036;29;20249;-80
2022/11/29 13:53:38;;;;;;;51.87;22.70;;;;;;;6.49;71.36;100803.66;10058313;29;20230;-81
2022/11/29 13:59:05;;;;;;;46.53;20.93;;;;;;;6.07;71.21;100807.94;10066676;29;20213;-82
2022/11/29 14:04:40;;;;;;;53.00;21.50;;;;;;;6.50;71.90;100805.31;10072563;29;20254;-81
2022/11/29 14:10:08;;;;;;;53.53;22.40;;;;;;;6.18;71.83;100817.91;10079552;29;20472;-81
2022/11/29 14:15:31;;;;;;;64.53;24.53;;;;;;;6.42;72.29;100817.16;10066888;29;20193;-81
2022/11/29 14:20:55;;;;;;;64.47;23.60;;;;;;;6.30;71.90;100820.31;10077263;29;20289;-81
2022/11/29 14:26:23;;;;;;;58.10;23.30;;;;;;;6.79;71.72;100819.28;10081622;29;20198;-82
2022/11/29 14:31:51;;;;;;;62.13;23.97;;;;;;;6.82;70.68;100818.66;10082633;29;20222;-82
2022/11/29 14:37:36;;;;;;;64.03;25.77;;;;;;;6.36;73.21;100821.13;10068411;29;20206;-81
2022/11/29 14:43:00;;;;;;;71.83;26.37;;;;;;;6.76;71.88;100820.69;10081120;29;20576;-82
2022/11/29 14:48:24;;;;;;;67.50;28.00;;;;;;;6.94;71.52;100825.50;10097748;29;20591;-82
2022/11/29 14:53:49;;;;;;;50.53;20.57;;;;;;;7.23;68.46;100830.19;10080392;29;20257;-81
2022/11/29 14:59:39;;;;;;;69.80;27.53;;;;;;;6.86;70.61;100834.59;10075334;29;20217;-82
2022/11/29 15:05:15;;;;;;;61.97;25.73;;;;;;;6.81;70.71;100834.63;10050266;29;20203;-82
2022/11/29 15:10:49;;;;;;;56.33;23.47;;;;;;;6.78;71.13;100840.03;10083319;29;20234;-81
2022/11/29 15:16:53;;;;;;;63.60;23.97;;;;;;;6.77;69.66;100839.19;10077802;29;20214;-80
2022/11/29 15:22:18;;;;;;;62.77;23.90;;;;;;;6.35;72.09;100844.63;10080201;29;20222;-81
2022/11/29 15:27:51;;;;;;;56.27;23.27;;;;;;;6.25;71.99;100852.00;10083913;29;20198;-81
2022/11/29 15:33:23;;;;;;;55.83;23.63;;;;;;;6.75;70.22;100849.84;10072274;29;20559;-81
2022/11/29 15:38:53;;;;;;;62.47;25.17;;;;;;;6.74;70.64;100847.34;10079093;29;20285;-83
2022/11/29 15:44:22;;;;;;;52.70;24.00;;;;;;;6.51;71.71;100852.63;10065778;29;20261;-80
2022/11/29 15:49:44;;;;;;;50.93;26.20;;;;;;;6.18;71.46;100859.91;10072512;29;20255;-81
2022/11/29 15:55:11;;;;;;;63.20;25.50;;;;;;;6.98;69.81;100863.03;10062039;29;20245;-80
2022/11/29 16:00:33;;;;;;;59.93;23.93;;;;;;;6.96;69.41;100862.47;10061101;29;20329;-79
2022/11/29 16:06:02;;;;;;;59.97;24.57;;;;;;;6.36;72.98;100869.53;10072157;29;20233;-83
2022/11/29 16:11:26;;;;;;;56.87;25.63;;;;;;;6.80;70.27;100865.78;10071347;29;20225;-85
2022/11/29 16:16:51;;;;;;;55.87;23.70;;;;;;;6.47;71.49;100875.91;10068304;29;20284;-85
2022/11/29 16:22:16;;;;;;;52.37;21.07;;;;;;;6.54;70.69;100877.22;10068604;29;20300;-79
2022/11/29 16:27:39;;;;;;;53.70;22.43;;;;;;;6.63;71.27;100875.47;10082961;29;20221;-84
2022/11/29 16:33:04;;;;;;;55.03;23.23;;;;;;;6.85;70.09;100874.94;10058370;29;20234;-81
2022/11/29 16:38:26;;;;;;;50.57;20.67;;;;;;;6.49;71.14;100888.50;10056936;29;20258;-83
2022/11/29 16:43:54;;;;;;;51.23;20.87;;;;;;;6.46;70.72;100882.63;10038649;29;20257;-85
2022/11/29 16:49:32;;;;;;;49.47;21.73;;;;;;;5.93;72.92;100885.28;10072374;29;20286;-80
2022/11/29 16:54:54;;;;;;;49.87;18.30;;;;;;;6.22;72.05;100893.75;10061757;29;20230;-86
2022/11/29 17:00:29;;;;;;;44.23;17.70;;;;;;;6.21;70.69;100904.09;10048106;29;20312;-83
2022/11/29 17:05:52;;;;;;;37.50;15.27;;;;;;;5.84;71.57;100906.63;10055894;29;20297;-82
2022/11/29 17:11:14;;;;;;;42.30;15.90;;;;;;;6.36;70.39;100899.50;10082905;29;20233;-83
2022/11/29 17:16:37;;;;;;;37.20;15.03;;;;;;;6.82;67.97;100892.34;10070478;29;20290;-81
2022/11/29 17:21:59;;;;;;;38.23;15.33;;;;;;;6.70;68.51;100905.91;10078788;29;20266;-80
2022/11/29 17:27:21;;;;;;;39.37;16.97;;;;;;;6.44;69.55;100907.28;10047608;29;20303;-82
2022/11/29 17:32:44;;;;;;;37.07;16.30;;;;;;;6.44;69.26;100908.13;10051485;29;21660;-80
2022/11/29 17:38:06;;;;;;;35.13;16.27;;;;;;;6.70;67.72;100902.28;10058692;29;20306;-83
2022/11/29 17:43:28;;;;;;;42.00;17.03;;;;;;;6.59;68.41;100904.34;10074642;29;20306;-82
2022/11/29 17:48:51;;;;;;;40.43;16.93;;;;;;;6.07;70.67;100908.69;10054961;29;20662;-81
2022/11/29 17:54:13;;;;;;;46.73;18.00;;;;;;;6.60;68.68;100915.25;10055842;29;20233;-81
2022/11/29 17:59:35;;;;;;;42.80;17.30;;;;;;;6.52;68.75;100917.88;10037743;29;20261;-81
2022/11/29 18:04:57;;;;;;;42.70;18.53;;;;;;;6.30;69.97;100924.72;10053471;29;20250;-81
2022/11/29 18:10:19;;;;;;;46.40;19.33;;;;;;;6.40;69.84;100934.22;10063581;29;20675;-82
2022/11/29 18:15:41;;;;;;;44.27;19.30;;;;;;;6.24;69.46;100936.28;10464239;23;20263;-83
2022/11/29 18:21:06;;;;;;;39.60;17.53;;;;;;;6.11;69.72;100936.94;9950003;29;20260;-82
2022/11/29 18:26:29;;;;;;;41.80;17.57;;;;;;;6.36;69.56;100941.50;9939188;29;20265;-85
2022/11/29 18:31:52;;;;;;;43.23;18.03;;;;;;;6.10;70.41;100936.09;9942476;29;20235;-83
2022/11/29 18:37:15;;;;;;;42.37;17.13;;;;;;;5.93;71.47;100936.50;9971619;29;20239;-80
2022/11/29 18:42:37;;;;;;;46.10;17.47;;;;;;;5.98;70.78;100932.00;9961080;29;20259;-88
2022/11/29 18:48:00;;;;;;;53.13;20.27;;;;;;;6.12;70.71;100939.44;9971445;29;20204;-83
2022/11/29 18:53:22;;;;;;;37.10;19.53;;;;;;;6.01;70.55;100942.63;9965803;29;20602;-80
2022/11/29 18:58:46;;;;;;;45.10;19.57;;;;;;;6.22;70.24;100938.53;9946811;29;20784;-81
2022/11/29 19:04:11;;;;;;;45.70;20.30;;;;;;;6.22;71.06;100944.97;9950320;29;20235;-80
2022/11/29 19:09:33;;;;;;;48.07;21.90;;;;;;;6.00;71.61;100944.56;9950212;29;20239;-88
2022/11/29 19:14:55;;;;;;;49.20;20.57;;;;;;;6.20;71.38;100950.00;9970610;29;20259;-88
2022/11/29 19:20:18;;;;;;;52.00;22.37;;;;;;;6.42;70.55;100943.16;9953670;29;20251;-81
2022/11/29 19:25:40;;;;;;;42.23;21.40;;;;;;;6.21;71.91;100950.84;9964840;29;20232;-80
2022/11/29 19:31:04;;;;;;;47.83;22.60;;;;;;;5.96;72.45;100954.66;9933177;29;20301;-79
2022/11/29 19:36:28;;;;;;;52.53;23.33;;;;;;;6.25;71.46;100955.59;9963065;29;20292;-86
2022/11/29 19:41:50;;;;;;;44.27;21.87;;;;;;;6.39;71.61;100957.72;9950807;29;20645;-80
2022/11/29 19:47:12;;;;;;;48.10;22.27;;;;;;;6.15;71.81;100958.44;9956044;29;20848;-87
2022/11/29 19:52:34;;;;;;;50.00;22.33;;;;;;;6.28;70.62;100956.97;9963379;29;21401;-82
2022/11/29 19:57:57;;;;;;;52.97;22.70;;;;;;;6.37;70.89;100968.38;9949696;29;20301;-81
2022/11/29 20:03:19;;;;;;;52.43;22.80;;;;;;;6.14;71.95;100968.00;9958641;29;20297;-80
2022/11/29 20:08:42;;;;;;;52.27;22.93;;;;;;;5.98;72.61;100972.00;9969266;29;20247;-83
2022/11/29 20:14:05;;;;;;;58.47;26.27;;;;;;;6.10;71.74;100980.88;9952137;29;20807;-80
2022/11/29 20:19:27;;;;;;;60.87;27.53;;;;;;;5.83;73.32;100991.66;9970690;29;20616;-80
2022/11/29 20:24:50;;;;;;;56.90;26.97;;;;;;;5.84;73.15;100993.34;9966870;29;20565;-80
2022/11/29 20:30:12;;;;;;;56.20;27.50;;;;;;;5.79;74.71;101001.75;9956839;29;20281;-81
2022/11/29 20:35:34;;;;;;;61.83;28.50;;;;;;;5.81;74.90;100997.56;9970369;29;20674;-88
2022/11/29 20:41:07;;;;;;;72.43;29.63;;;;;;;5.99;74.21;100998.88;9955677;29;20259;-82
2022/11/29 20:46:30;;;;;;;65.63;29.63;;;;;;;5.31;77.31;101003.34;9972421;29;20762;-80
2022/11/29 20:52:00;;;;;;;66.97;29.20;;;;;;;5.99;74.31;100995.22;9981317;29;20228;-81
2022/11/29 20:57:22;;;;;;;67.73;30.40;;;;;;;5.17;77.78;101005.91;9970809;29;20208;-80
2022/11/29 21:02:44;;;;;;;63.40;28.47;;;;;;;5.68;76.12;101000.97;9969036;29;20259;-80
2022/11/29 21:08:06;;;;;;;60.07;28.77;;;;;;;5.44;76.04;100998.00;9976537;29;20208;-82
2022/11/29 21:13:29;;;;;;;57.63;27.43;;;;;;;5.70;75.45;100998.72;9967688;29;20648;-80
2022/11/29 21:18:53;;;;;;;61.97;28.53;;;;;;;6.05;74.56;100999.66;9960897;29;20268;-80
2022/11/29 21:29:48;;;;;;;60.67;28.10;;;;;;;5.79;75.44;101004.56;10098271;29;20233;-80
2022/11/29 21:35:10;;;;;;;58.77;27.83;;;;;;;5.25;78.37;101019.28;10116707;29;20218;-80
2022/11/29 21:40:32;;;;;;;61.77;27.73;;;;;;;4.95;78.95;101013.75;10101164;29;20613;-80
2022/11/29 21:45:56;;;;;;;56.20;26.70;;;;;;;5.58;77.08;101013.03;10100292;29;20205;-87
2022/11/29 21:51:18;;;;;;;57.30;28.40;;;;;;;5.54;75.85;101023.13;10096383;29;20595;-81
2022/11/29 21:56:40;;;;;;;51.77;25.60;;;;;;;5.25;77.52;101024.88;10097320;29;20654;-80
2022/11/29 22:02:02;;;;;;;57.27;28.40;;;;;;;5.98;74.25;101021.53;10089843;29;20305;-80
2022/11/29 22:07:24;;;;;;;67.13;28.47;;;;;;;5.70;75.42;101025.84;10092058;29;20273;-80
2022/11/29 22:12:46;;;;;;;65.20;29.07;;;;;;;5.99;75.07;101024.03;10089284;29;20277;-80
2022/11/29 22:18:09;;;;;;;71.70;28.43;;;;;;;5.65;76.17;101028.66;10102998;29;20268;-82
2022/11/29 22:23:32;;;;;;;68.83;29.40;;;;;;;5.52;76.04;101024.50;10102730;29;20229;-81
2022/11/29 22:28:55;;;;;;;65.63;29.03;;;;;;;5.59;76.02;101020.31;10056672;29;20268;-81
2022/11/29 22:34:18;;;;;;;63.87;29.83;;;;;;;6.02;74.34;101017.84;10045183;29;20207;-80
2022/11/29 22:39:40;;;;;;;59.03;26.50;;;;;;;6.01;74.03;101016.19;10033145;29;20254;-80
2022/11/29 22:45:03;;;;;;;69.03;30.27;;;;;;;5.70;75.78;101014.66;10055094;29;20226;-81
2022/11/29 22:50:25;;;;;;;68.80;31.03;;;;;;;5.94;74.43;101016.50;10053015;29;20222;-80
2022/11/29 22:55:47;;;;;;;83.40;32.63;;;;;;;5.48;76.56;101018.69;10055430;29;20564;-81
2022/11/29 23:01:12;;;;;;;84.50;33.80;;;;;;;6.09;74.21;101010.00;10061427;29;20274;-81
2022/11/29 23:06:36;;;;;;;81.50;33.73;;;;;;;5.67;75.41;101016.06;10033470;29;20202;-81
2022/11/29 23:11:59;;;;;;;78.00;32.37;;;;;;;6.06;74.13;101024.56;10040372;29;20289;-81
2022/11/29 23:17:21;;;;;;;81.50;31.93;;;;;;;5.67;75.96;101037.59;10046675;29;20690;-81
2022/11/29 23:22:43;;;;;;;67.63;30.00;;;;;;;5.77;74.63;101031.97;10038872;29;20246;-81
2022/11/29 23:28:05;;;;;;;87.37;33.23;;;;;;;6.00;74.40;101036.91;10072911;29;20306;-81
2022/11/29 23:33:27;;;;;;;80.33;32.77;;;;;;;5.72;74.48;101041.25;10079911;29;20250;-80
2022/11/29 23:38:49;;;;;;;94.93;33.87;;;;;;;6.00;75.06;101036.91;10070757;29;20202;-80
2022/11/29 23:44:11;;;;;;;109.83;36.90;;;;;;;5.81;75.49;101039.50;10080408;29;20229;-81
2022/11/29 23:49:34;;;;;;;92.63;35.07;;;;;;;5.75;75.42;101040.66;10089320;29;20286;-81
2022/11/29 23:54:56;;;;;;;102.47;36.47;;;;;;;5.66;76.76;101047.13;10098786;29;20254;-81
